Time;durP1;ratioP1;P1;durP2;ratioP2;P2;SDS_P1;SDS_P2;PMS_P1;PMS_P2;Temp;Humidity;BMP_temperature;BMP_pressure;BME280_temperature;BME280_humidity;BME280_pressure;Samples;Min_cycle;Max_cycle;Signal;HPM_P1;HPM_P2
2021/09/25 00:00:40;;;;;;;;;25.75;22.50;;;;;-146.80;100.00;64830.25;5076487;28;45445;-65
2021/09/25 00:03:07;;;;;;;;;32.25;28.25;;;;;-146.80;100.00;64830.25;5076949;27;45459;-66
2021/09/25 00:05:36;;;;;;;;;26.00;22.00;;;;;-146.80;100.00;64830.25;5075546;28;45691;-63
2021/09/25 00:08:02;;;;;;;;;27.75;23.50;;;;;-146.80;100.00;64830.25;5076144;28;46577;-64
2021/09/25 00:10:28;;;;;;;;;25.50;23.75;;;;;-146.80;100.00;64830.25;5076198;27;45299;-64
2021/09/25 00:12:55;;;;;;;;;23.25;22.25;;;;;-146.80;100.00;64830.25;5076555;27;45338;-63
2021/09/25 00:15:21;;;;;;;;;26.00;22.75;;;;;-146.80;100.00;64830.25;5075966;27;45587;-63
2021/09/25 00:17:47;;;;;;;;;39.25;29.25;;;;;-146.80;100.00;64830.25;5090897;27;48531;-64
2021/09/25 00:20:15;;;;;;;;;26.75;24.75;;;;;-146.80;100.00;64830.25;5075573;28;45308;-63
2021/09/25 00:22:40;;;;;;;;;20.00;20.00;;;;;-146.80;100.00;64830.25;5075685;27;45343;-64
2021/09/25 00:25:06;;;;;;;;;22.25;20.00;;;;;-146.80;100.00;64830.25;5076043;27;45326;-63
2021/09/25 00:27:32;;;;;;;;;24.00;21.25;;;;;-146.80;100.00;64830.25;5075614;27;46406;-64
2021/09/25 00:29:58;;;;;;;;;24.75;21.25;;;;;-146.80;100.00;64830.25;5075288;27;45473;-65
2021/09/25 00:32:23;;;;;;;;;22.25;20.25;;;;;-146.80;100.00;64830.25;5075730;27;45366;-64
2021/09/25 00:34:49;;;;;;;;;20.25;18.75;;;;;-146.80;100.00;64830.25;5075712;27;45380;-64
2021/09/25 00:37:15;;;;;;;;;19.00;18.50;;;;;-146.80;100.00;64830.25;5075547;27;45449;-65
2021/09/25 00:39:40;;;;;;;;;25.50;21.50;;;;;-146.80;100.00;64830.25;5075445;27;45384;-63
2021/09/25 00:42:06;;;;;;;;;22.00;20.75;;;;;-146.80;100.00;64830.25;5076013;28;45298;-65
2021/09/25 00:44:31;;;;;;;;;26.25;19.50;;;;;-146.80;100.00;64830.25;5074375;28;45368;-63
2021/09/25 00:46:58;;;;;;;;;26.50;23.75;;;;;-146.80;100.00;64830.25;5075666;27;46050;-63
2021/09/25 00:49:24;;;;;;;;;22.50;22.50;;;;;-146.80;100.00;64830.25;5075720;27;45450;-63
2021/09/25 00:51:50;;;;;;;;;24.75;22.25;;;;;-146.80;100.00;64830.25;5075984;27;45432;-64
2021/09/25 00:54:17;;;;;;;;;24.25;21.75;;;;;-146.80;100.00;64830.25;5091695;27;45645;-64
2021/09/25 00:56:44;;;;;;;;;24.75;22.00;;;;;-146.80;100.00;64830.25;5075808;27;46438;-64
2021/09/25 00:59:11;;;;;;;;;36.00;33.00;;;;;-146.80;100.00;64830.25;5073853;28;45410;-64
2021/09/25 01:01:38;;;;;;;;;25.00;24.25;;;;;-146.80;100.00;64830.25;5073773;28;45460;-63
2021/09/25 01:04:04;;;;;;;;;26.25;23.75;;;;;-146.80;100.00;64830.25;5091250;27;45317;-64
2021/09/25 01:06:29;;;;;;;;;27.25;24.75;;;;;-146.80;100.00;64830.25;5075519;27;46346;-65
2021/09/25 01:08:55;;;;;;;;;31.50;30.25;;;;;-146.80;100.00;64830.25;5074391;28;45995;-64
2021/09/25 01:11:20;;;;;;;;;25.75;23.25;;;;;-146.80;100.00;64830.25;5075765;27;45280;-63
2021/09/25 01:13:46;;;;;;;;;20.75;20.25;;;;;-146.80;100.00;64830.25;5091553;27;45290;-64
2021/09/25 01:16:11;;;;;;;;;22.75;21.00;;;;;-146.80;100.00;64830.25;5075183;27;45421;-63
2021/09/25 01:18:37;;;;;;;;;18.75;17.75;;;;;-146.80;100.00;64830.25;5091193;27;45224;-64
2021/09/25 01:21:06;;;;;;;;;25.75;20.50;;;;;-146.80;100.00;64830.25;5075498;27;45381;-63
2021/09/25 01:23:32;;;;;;;;;25.25;23.50;;;;;-146.80;100.00;64830.25;5074100;27;45327;-64
2021/09/25 01:25:59;;;;;;;;;22.00;22.00;;;;;-146.80;100.00;64830.25;5074779;27;46318;-63
2021/09/25 01:28:25;;;;;;;;;28.75;23.25;;;;;-146.80;100.00;64830.25;5074871;27;45255;-62
2021/09/25 01:30:50;;;;;;;;;27.75;23.75;;;;;-146.80;100.00;64830.25;5075087;27;45452;-64
2021/09/25 01:33:26;;;;;;;;;25.25;20.50;;;;;-146.80;100.00;64830.25;5074140;28;45599;-65
2021/09/25 01:35:52;;;;;;;;;28.25;23.25;;;;;-146.80;100.00;64830.25;5073606;28;47233;-64
2021/09/25 01:38:17;;;;;;;;;30.50;27.25;;;;;-146.80;100.00;64830.25;5074954;27;45318;-63
2021/09/25 01:40:42;;;;;;;;;29.00;23.00;;;;;-146.80;100.00;64830.25;5075622;27;45270;-63
2021/09/25 01:43:08;;;;;;;;;29.75;25.00;;;;;-146.80;100.00;64830.25;5075722;27;45319;-63
2021/09/25 01:45:33;;;;;;;;;25.75;24.50;;;;;-146.80;100.00;64830.25;5074894;27;46381;-64
2021/09/25 01:47:58;;;;;;;;;22.50;22.50;;;;;-146.80;100.00;64830.25;5075143;27;45170;-63
2021/09/25 01:50:23;;;;;;;;;26.25;23.75;;;;;-146.80;100.00;64830.25;5090842;27;45395;-63
2021/09/25 01:52:49;;;;;;;;;34.00;24.50;;;;;-146.80;100.00;64830.25;5091108;27;45598;-64
2021/09/25 01:55:14;;;;;;;;;41.25;34.50;;;;;-146.80;100.00;64830.25;5074904;27;45334;-64
2021/09/25 01:57:40;;;;;;;;;46.75;38.50;;;;;-146.80;100.00;64830.25;5075231;27;45330;-64
2021/09/25 02:00:07;;;;;;;;;36.75;31.00;;;;;-146.80;100.00;64830.25;5073404;28;45475;-63
2021/09/25 02:02:32;;;;;;;;;39.25;31.50;;;;;-146.80;100.00;64830.25;5074916;27;45662;-62
2021/09/25 02:04:58;;;;;;;;;31.50;30.50;;;;;-146.80;100.00;64830.25;5074871;27;46203;-62
2021/09/25 02:07:23;;;;;;;;;44.75;31.75;;;;;-146.80;100.00;64830.25;5074771;27;45456;-64
2021/09/25 02:09:49;;;;;;;;;33.00;30.25;;;;;-146.80;100.00;64830.25;5073465;28;45479;-64
2021/09/25 02:12:15;;;;;;;;;28.25;24.00;;;;;-146.80;100.00;64830.25;5074821;27;45318;-65
2021/09/25 02:14:41;;;;;;;;;31.50;25.25;;;;;-146.80;100.00;64830.25;5077542;28;45471;-63
2021/09/25 02:17:06;;;;;;;;;26.50;23.25;;;;;-146.80;100.00;64830.25;5077958;28;45377;-65
2021/09/25 02:19:32;;;;;;;;;25.00;21.75;;;;;-146.80;100.00;64830.25;5094149;27;45426;-64
2021/09/25 02:21:58;;;;;;;;;22.50;19.25;;;;;-146.80;100.00;64830.25;5078322;27;45259;-64
2021/09/25 02:24:23;;;;;;;;;27.25;23.00;;;;;-146.80;100.00;64830.25;5077784;27;46672;-64
2021/09/25 02:26:48;;;;;;;;;27.75;24.00;;;;;-146.80;100.00;64830.25;5078015;27;45463;-64
2021/09/25 02:29:14;;;;;;;;;29.50;27.75;;;;;-146.80;100.00;64830.25;5077652;27;45476;-64
2021/09/25 02:31:39;;;;;;;;;31.50;27.50;;;;;-146.80;100.00;64830.25;5077881;27;45469;-63
2021/09/25 02:34:06;;;;;;;;;29.00;25.50;;;;;-146.80;100.00;64830.25;5077921;27;46572;-63
2021/09/25 02:36:32;;;;;;;;;24.75;21.25;;;;;-146.80;100.00;64830.25;5078042;27;45416;-64
2021/09/25 02:38:58;;;;;;;;;24.50;24.00;;;;;-146.80;100.00;64830.25;5077851;27;45475;-64
2021/09/25 02:41:24;;;;;;;;;25.00;20.75;;;;;-146.80;100.00;64830.25;5077786;27;45356;-63
2021/09/25 02:43:49;;;;;;;;;27.00;23.75;;;;;-146.80;100.00;64830.25;5076123;28;47910;-64
2021/09/25 02:46:14;;;;;;;;;37.00;31.75;;;;;-146.80;100.00;64830.25;5077431;28;45290;-64
2021/09/25 02:48:40;;;;;;;;;29.75;24.00;;;;;-146.80;100.00;64830.25;5077878;27;45331;-64
2021/09/25 02:51:07;;;;;;;;;27.00;26.50;;;;;-146.80;100.00;64830.25;5077930;27;45227;-63
2021/09/25 02:53:32;;;;;;;;;28.25;25.50;;;;;-146.80;100.00;64830.25;5077381;28;45315;-64
2021/09/25 02:55:58;;;;;;;;;28.75;26.50;;;;;-146.80;100.00;64830.25;5077604;27;45467;-64
2021/09/25 02:58:23;;;;;;;;;32.00;27.50;;;;;-146.80;100.00;64830.25;5077504;27;45267;-65
2021/09/25 03:00:48;;;;;;;;;26.25;23.50;;;;;-146.80;100.00;64830.25;5077659;27;45428;-66
2021/09/25 03:03:14;;;;;;;;;25.75;24.00;;;;;-146.80;100.00;64830.25;5077507;27;45519;-64
2021/09/25 03:05:39;;;;;;;;;36.75;31.75;;;;;-146.80;100.00;64830.25;5077437;27;45400;-64
2021/09/25 03:08:05;;;;;;;;;29.75;26.75;;;;;-146.80;100.00;64830.25;5076005;27;45365;-63
2021/09/25 03:10:30;;;;;;;;;28.00;27.00;;;;;-146.80;100.00;64830.25;5077589;27;45390;-64
2021/09/25 03:12:56;;;;;;;;;31.75;27.00;;;;;-146.80;100.00;64830.25;5075689;28;46629;-62
2021/09/25 03:15:21;;;;;;;;;39.25;32.50;;;;;-146.80;100.00;64830.25;5076966;28;45520;-64
2021/09/25 03:17:47;;;;;;;;;34.25;30.75;;;;;-146.80;100.00;64830.25;5077336;27;45282;-63
2021/09/25 03:20:13;;;;;;;;;28.75;26.25;;;;;-146.80;100.00;64830.25;5076163;28;45640;-63
2021/09/25 03:22:39;;;;;;;;;31.50;29.00;;;;;-146.80;100.00;64830.25;5076995;27;45409;-64
2021/09/25 03:25:08;;;;;;;;;33.75;29.00;;;;;-146.80;100.00;64830.25;5076300;27;45401;-63
2021/09/25 03:27:38;;;;;;;;;29.50;27.00;;;;;-146.80;100.00;64830.25;5076821;27;45385;-63
2021/09/25 03:30:06;;;;;;;;;31.00;25.50;;;;;-146.80;100.00;64830.25;5076864;27;45352;-64
2021/09/25 03:32:31;;;;;;;;;30.00;26.75;;;;;-146.80;100.00;64830.25;5074975;28;47220;-62
2021/09/25 03:34:57;;;;;;;;;28.75;27.50;;;;;-146.80;100.00;64830.25;5076798;27;45796;-64
2021/09/25 03:37:22;;;;;;;;;29.50;28.00;;;;;-146.80;100.00;64830.25;5075477;28;45352;-64
2021/09/25 03:39:48;;;;;;;;;30.00;29.00;;;;;-146.80;100.00;64830.25;5077068;27;45577;-63
2021/09/25 03:42:13;;;;;;;;;34.25;31.75;;;;;-146.80;100.00;64830.25;5076965;27;46419;-64
2021/09/25 03:44:38;;;;;;;;;37.25;33.50;;;;;-146.80;100.00;64830.25;5076440;27;45307;-62
2021/09/25 03:47:04;;;;;;;;;39.75;34.50;;;;;-146.80;100.00;64830.25;5092302;27;45503;-64
2021/09/25 03:49:29;;;;;;;;;36.75;31.25;;;;;-146.80;100.00;64830.25;5076884;27;45520;-64
2021/09/25 03:51:54;;;;;;;;;35.00;32.50;;;;;-146.80;100.00;64830.25;5076337;27;46399;-64
2021/09/25 03:54:20;;;;;;;;;39.00;30.25;;;;;-146.80;100.00;64830.25;5076695;27;45329;-63
2021/09/25 03:56:46;;;;;;;;;32.50;30.75;;;;;-146.80;100.00;64830.25;5077059;27;45291;-64
2021/09/25 03:59:12;;;;;;;;;37.50;30.75;;;;;-146.80;100.00;64830.25;5076714;27;45313;-64
2021/09/25 04:01:37;;;;;;;;;50.00;37.50;;;;;-146.80;100.00;64830.25;5076523;27;46039;-64
2021/09/25 04:04:03;;;;;;;;;39.75;31.75;;;;;-146.80;100.00;64830.25;5092337;27;45321;-63
2021/09/25 04:06:28;;;;;;;;;34.00;29.75;;;;;-146.80;100.00;64830.25;5076809;27;45411;-64
2021/09/25 04:08:54;;;;;;;;;33.25;27.50;;;;;-146.80;100.00;64830.25;5076979;27;45618;-66
2021/09/25 04:11:19;;;;;;;;;29.75;26.00;;;;;-146.80;100.00;64830.25;5076159;27;45377;-63
2021/09/25 04:13:45;;;;;;;;;30.50;25.00;;;;;-146.80;100.00;64830.25;5076414;28;45317;-64
2021/09/25 04:16:10;;;;;;;;;28.00;27.25;;;;;-146.80;100.00;64830.25;5076175;27;45172;-64
2021/09/25 04:18:36;;;;;;;;;35.75;27.50;;;;;-146.80;100.00;64830.25;5076449;27;45482;-64
2021/09/25 04:21:01;;;;;;;;;31.50;26.50;;;;;-146.80;100.00;64830.25;5076104;27;45480;-63
2021/09/25 04:23:26;;;;;;;;;29.00;27.25;;;;;-146.80;100.00;64830.25;5075800;27;45413;-64
2021/09/25 04:25:52;;;;;;;;;26.25;25.00;;;;;-146.80;100.00;64830.25;5074791;28;45486;-63
2021/09/25 04:28:17;;;;;;;;;33.25;31.00;;;;;-146.80;100.00;64830.25;5076482;27;45226;-63
2021/09/25 04:30:43;;;;;;;;;31.75;26.25;;;;;-146.80;100.00;64830.25;5075603;27;45498;-64
2021/09/25 04:33:10;;;;;;;;;30.25;26.75;;;;;-146.80;100.00;64830.25;5074374;28;45399;-64
2021/09/25 04:35:36;;;;;;;;;34.25;28.00;;;;;-146.80;100.00;64830.25;5073912;28;45291;-64
2021/09/25 04:38:03;;;;;;;;;29.75;27.00;;;;;-146.80;100.00;64830.25;5091609;27;45353;-64
2021/09/25 04:40:32;;;;;;;;;24.75;22.25;;;;;-146.80;100.00;64830.25;5076009;27;46680;-63
2021/09/25 04:43:00;;;;;;;;;35.50;29.00;;;;;-146.80;100.00;64830.25;5075877;27;45210;-64
2021/09/25 04:45:26;;;;;;;;;29.50;26.75;;;;;-146.80;100.00;64830.25;5091627;27;45437;-64
2021/09/25 04:47:52;;;;;;;;;33.75;27.75;;;;;-146.80;100.00;64830.25;5076390;27;45464;-64
2021/09/25 04:50:18;;;;;;;;;28.75;26.75;;;;;-146.80;100.00;64830.25;5076068;27;46543;-65
2021/09/25 04:52:44;;;;;;;;;31.75;30.00;;;;;-146.80;100.00;64830.25;5075798;27;45429;-63
2021/09/25 04:55:10;;;;;;;;;30.75;27.25;;;;;-146.80;100.00;64830.25;5075684;28;45171;-64
2021/09/25 04:57:35;;;;;;;;;39.25;34.50;;;;;-146.80;100.00;64830.25;5075653;27;45270;-62
2021/09/25 05:00:01;;;;;;;;;39.50;33.50;;;;;-146.80;100.00;64830.25;5075629;27;46540;-63
2021/09/25 05:02:26;;;;;;;;;38.75;32.00;;;;;-146.80;100.00;64830.25;5075369;27;45348;-62
2021/09/25 05:04:52;;;;;;;;;40.00;34.50;;;;;-146.80;100.00;64830.25;5075614;28;45403;-63
2021/09/25 05:07:17;;;;;;;;;42.25;35.50;;;;;-146.80;100.00;64830.25;5075819;27;45643;-64
2021/09/25 05:09:44;;;;;;;;;37.00;32.75;;;;;-146.80;100.00;64830.25;5075392;27;45370;-64
2021/09/25 05:12:09;;;;;;;;;37.50;32.75;;;;;-146.80;100.00;64830.25;5075170;27;45398;-62
2021/09/25 05:14:35;;;;;;;;;41.00;34.50;;;;;-146.80;100.00;64830.25;5075682;27;45374;-63
2021/09/25 05:17:02;;;;;;;;;38.50;34.50;;;;;-146.80;100.00;64830.25;5075500;27;45607;-63
2021/09/25 05:19:27;;;;;;;;;38.25;32.50;;;;;-146.80;100.00;64830.25;5075198;28;45774;-63
2021/09/25 05:21:52;;;;;;;;;48.25;36.25;;;;;-146.80;100.00;64830.25;5073717;27;45441;-64
2021/09/25 05:24:19;;;;;;;;;44.50;34.25;;;;;-146.80;100.00;64830.25;5075523;27;45348;-63
2021/09/25 05:26:46;;;;;;;;;33.50;31.00;;;;;-146.80;100.00;64830.25;5075211;27;45583;-63
2021/09/25 05:29:11;;;;;;;;;44.25;35.25;;;;;-146.80;100.00;64830.25;5090535;27;47315;-66
2021/09/25 05:31:37;;;;;;;;;42.00;34.50;;;;;-146.80;100.00;64830.25;5090511;27;45250;-64
2021/09/25 05:34:03;;;;;;;;;48.75;36.75;;;;;-146.80;100.00;64830.25;5075274;27;45326;-63
2021/09/25 05:36:29;;;;;;;;;46.50;37.50;;;;;-146.80;100.00;64830.25;5075981;27;45551;-62
2021/09/25 05:38:54;;;;;;;;;40.00;34.75;;;;;-146.80;100.00;64830.25;5075500;27;45367;-63
2021/09/25 05:41:19;;;;;;;;;37.00;33.50;;;;;-146.80;100.00;64830.25;5075795;27;45285;-63
2021/09/25 05:43:45;;;;;;;;;41.50;31.25;;;;;-146.80;100.00;64830.25;5075209;27;45365;-63
2021/09/25 05:46:11;;;;;;;;;35.50;32.25;;;;;-146.80;100.00;64830.25;5075080;27;45287;-63
2021/09/25 05:48:36;;;;;;;;;36.25;30.50;;;;;-146.80;100.00;64830.25;5077770;27;46396;-64
2021/09/25 05:51:03;;;;;;;;;35.50;30.50;;;;;-146.80;100.00;64830.25;5078356;27;45357;-63
2021/09/25 05:53:28;;;;;;;;;33.25;30.25;;;;;-146.80;100.00;64830.25;5078662;27;45306;-64
2021/09/25 05:55:54;;;;;;;;;33.00;28.50;;;;;-146.80;100.00;64830.25;5078784;28;45551;-64
2021/09/25 05:58:19;;;;;;;;;27.00;26.00;;;;;-146.80;100.00;64830.25;5077550;28;47411;-65
2021/09/25 06:00:44;;;;;;;;;33.00;29.00;;;;;-146.80;100.00;64830.25;5078653;27;45310;-63
2021/09/25 06:03:10;;;;;;;;;36.00;31.50;;;;;-146.80;100.00;64830.25;5078813;27;45438;-64
2021/09/25 06:05:35;;;;;;;;;36.50;31.75;;;;;-146.80;100.00;64830.25;5078773;27;45193;-64
2021/09/25 06:08:03;;;;;;;;;34.00;30.25;;;;;-146.80;100.00;64830.25;5078115;27;45334;-62
2021/09/25 06:10:28;;;;;;;;;39.00;30.25;;;;;-146.80;100.00;64830.25;5077936;28;45398;-63
2021/09/25 06:12:54;;;;;;;;;29.00;26.25;;;;;-146.80;100.00;64830.25;5078399;27;45299;-64
2021/09/25 06:15:19;;;;;;;;;33.50;30.75;;;;;-146.80;100.00;64830.25;5078009;27;45367;-64
2021/09/25 06:17:45;;;;;;;;;37.50;30.50;;;;;-146.80;100.00;64830.25;5076388;28;47380;-63
2021/09/25 06:20:12;;;;;;;;;38.75;33.25;;;;;-146.80;100.00;64830.25;5076802;28;45362;-63
2021/09/25 06:22:37;;;;;;;;;33.25;29.75;;;;;-146.80;100.00;64830.25;5093971;27;45400;-65
2021/09/25 06:25:06;;;;;;;;;43.75;36.25;;;;;-146.80;100.00;64830.25;5077050;28;45513;-64
2021/09/25 06:27:31;;;;;;;;;42.25;33.00;;;;;-146.80;100.00;64830.25;5078153;27;46135;-63
2021/09/25 06:29:57;;;;;;;;;39.25;33.50;;;;;-146.80;100.00;64830.25;5078080;27;45373;-66
2021/09/25 06:32:22;;;;;;;;;35.25;31.25;;;;;-146.80;100.00;64830.25;5076784;27;45379;-64
2021/09/25 06:34:48;;;;;;;;;51.00;41.25;;;;;-146.80;100.00;64830.25;5078197;27;45215;-64
2021/09/25 06:37:13;;;;;;;;;51.00;39.75;;;;;-146.80;100.00;64830.25;5077555;27;45416;-64
2021/09/25 06:39:39;;;;;;;;;47.75;37.00;;;;;-146.80;100.00;64830.25;5077738;27;45238;-63
2021/09/25 06:42:05;;;;;;;;;38.25;31.00;;;;;-146.80;100.00;64830.25;5093410;27;45340;-64
2021/09/25 06:44:30;;;;;;;;;46.50;37.75;;;;;-146.80;100.00;64830.25;5077941;28;45445;-65
2021/09/25 06:46:55;;;;;;;;;45.00;37.25;;;;;-146.80;100.00;64830.25;5077844;27;45562;-64
2021/09/25 06:49:23;;;;;;;;;50.00;38.50;;;;;-146.80;100.00;64830.25;5077503;27;45397;-64
2021/09/25 06:51:49;;;;;;;;;51.50;41.00;;;;;-146.80;100.00;64830.25;5077459;27;45450;-63
2021/09/25 06:54:14;;;;;;;;;51.50;40.25;;;;;-146.80;100.00;64830.25;5077683;27;45202;-64
2021/09/25 06:56:40;;;;;;;;;41.00;33.75;;;;;-146.80;100.00;64830.25;5075813;28;46952;-64
2021/09/25 06:59:05;;;;;;;;;44.25;37.50;;;;;-146.80;100.00;64830.25;5076598;27;45455;-64
2021/09/25 07:01:32;;;;;;;;;43.50;34.75;;;;;-146.80;100.00;64830.25;5077454;27;45184;-64
2021/09/25 07:03:57;;;;;;;;;31.25;29.50;;;;;-146.80;100.00;64830.25;5077419;28;45545;-64
2021/09/25 07:06:23;;;;;;;;;33.75;31.25;;;;;-146.80;100.00;64830.25;5077474;27;46179;-62
2021/09/25 07:08:48;;;;;;;;;36.00;30.75;;;;;-146.80;100.00;64830.25;5077090;27;45189;-64
2021/09/25 07:11:14;;;;;;;;;41.25;33.50;;;;;-146.80;100.00;64830.25;5077269;27;45354;-64
2021/09/25 07:13:39;;;;;;;;;44.75;34.50;;;;;-146.80;100.00;64830.25;5077410;27;45439;-64
2021/09/25 07:16:05;;;;;;;;;37.00;31.50;;;;;-146.80;100.00;64830.25;5076946;27;46585;-63
2021/09/25 07:18:30;;;;;;;;;37.00;33.25;;;;;-146.80;100.00;64830.25;5075845;28;45481;-64
2021/09/25 07:20:56;;;;;;;;;38.75;32.75;;;;;-146.80;100.00;64830.25;5077915;27;45457;-64
2021/09/25 07:23:22;;;;;;;;;39.25;33.50;;;;;-146.80;100.00;64830.25;5077465;27;45389;-64
2021/09/25 07:25:47;;;;;;;;;43.75;34.75;;;;;-146.80;100.00;64830.25;5076980;27;46537;-65
2021/09/25 07:28:16;;;;;;;;;42.75;34.50;;;;;-146.80;100.00;64830.25;5076823;27;45284;-63
2021/09/25 07:30:43;;;;;;;;;42.25;33.75;;;;;-146.80;100.00;64830.25;5075688;27;45284;-66
2021/09/25 07:33:09;;;;;;;;;37.00;32.25;;;;;-146.80;100.00;64830.25;5077254;27;45963;-63
2021/09/25 07:35:35;;;;;;;;;40.75;34.00;;;;;-146.80;100.00;64830.25;5076705;27;45520;-63
2021/09/25 07:38:06;;;;;;;;;34.75;33.25;;;;;-146.80;100.00;64830.25;5076757;27;45468;-65
2021/09/25 07:40:32;;;;;;;;;68.25;53.25;;;;;-146.80;100.00;64830.25;5077052;28;45216;-63
2021/09/25 07:42:58;;;;;;;;;36.00;33.50;;;;;-146.80;100.00;64830.25;5077548;27;45165;-65
2021/09/25 07:45:24;;;;;;;;;42.00;35.00;;;;;-146.80;100.00;64830.25;5076615;27;46151;-63
2021/09/25 07:47:50;;;;;;;;;39.25;33.50;;;;;-146.80;100.00;64830.25;5076906;28;45562;-64
2021/09/25 07:50:16;;;;;;;;;39.25;34.75;;;;;-146.80;100.00;64830.25;5076811;27;45333;-65
2021/09/25 07:52:42;;;;;;;;;41.75;34.50;;;;;-146.80;100.00;64830.25;5076985;27;45450;-64
2021/09/25 07:55:13;;;;;;;;;46.00;35.25;;;;;-146.80;100.00;64830.25;5076601;27;45489;-63
2021/09/25 07:57:39;;;;;;;;;44.50;36.25;;;;;-146.80;100.00;64830.25;5076534;28;45317;-64
2021/09/25 08:00:06;;;;;;;;;44.75;35.50;;;;;-146.80;100.00;64830.25;5075287;28;45459;-63
2021/09/25 08:02:32;;;;;;;;;39.25;34.50;;;;;-146.80;100.00;64830.25;5076494;27;45520;-63
2021/09/25 08:04:57;;;;;;;;;38.75;33.75;;;;;-146.80;100.00;64830.25;5076168;27;46212;-63
2021/09/25 08:07:23;;;;;;;;;43.75;35.50;;;;;-146.80;100.00;64830.25;5076107;28;45341;-63
2021/09/25 08:09:48;;;;;;;;;36.00;34.25;;;;;-146.80;100.00;64830.25;5076474;27;45271;-63
2021/09/25 08:12:14;;;;;;;;;43.25;35.50;;;;;-146.80;100.00;64830.25;5075050;27;45326;-63
2021/09/25 08:14:39;;;;;;;;;48.00;37.25;;;;;-146.80;100.00;64830.25;5076082;27;45576;-62
2021/09/25 08:17:05;;;;;;;;;47.25;37.50;;;;;-146.80;100.00;64830.25;5076205;27;45336;-64
2021/09/25 08:19:31;;;;;;;;;40.50;33.75;;;;;-146.80;100.00;64830.25;5076519;27;45352;-66
2021/09/25 08:21:56;;;;;;;;;40.00;33.25;;;;;-146.80;100.00;64830.25;5075218;28;45405;-65
2021/09/25 08:24:22;;;;;;;;;44.75;35.25;;;;;-146.80;100.00;64830.25;5075963;27;45328;-62
2021/09/25 08:26:47;;;;;;;;;40.50;34.75;;;;;-146.80;100.00;64830.25;5075922;27;45426;-64
2021/09/25 08:29:12;;;;;;;;;45.00;36.50;;;;;-146.80;100.00;64830.25;5076020;27;45226;-63
2021/09/25 08:31:38;;;;;;;;;40.25;32.50;;;;;-146.80;100.00;64830.25;5075777;27;45562;-65
2021/09/25 08:34:03;;;;;;;;;46.25;38.50;;;;;-146.80;100.00;64830.25;5075503;27;46280;-64
2021/09/25 08:36:29;;;;;;;;;40.00;34.25;;;;;-146.80;100.00;64830.25;5076195;27;45305;-65
2021/09/25 08:38:54;;;;;;;;;36.00;31.50;;;;;-146.80;100.00;64830.25;5075905;27;45412;-64
2021/09/25 08:41:20;;;;;;;;;44.75;35.50;;;;;-146.80;100.00;64830.25;5075778;27;45427;-65
2021/09/25 08:43:48;;;;;;;;;47.25;38.75;;;;;-146.80;100.00;64830.25;5090905;27;46544;-64
2021/09/25 08:46:14;;;;;;;;;44.50;33.50;;;;;-146.80;100.00;64830.25;5091432;27;46007;-65
2021/09/25 08:48:40;;;;;;;;;46.75;37.75;;;;;-146.80;100.00;64830.25;5075763;27;45338;-63
2021/09/25 08:51:07;;;;;;;;;46.75;36.50;;;;;-146.80;100.00;64830.25;5076017;27;45300;-64
2021/09/25 08:53:35;;;;;;;;;44.25;35.25;;;;;-146.80;100.00;64830.25;5075878;27;45407;-64
2021/09/25 08:56:01;;;;;;;;;42.75;34.75;;;;;-146.80;100.00;64830.25;5075752;27;45340;-63
2021/09/25 08:58:26;;;;;;;;;45.50;34.25;;;;;-146.80;100.00;64830.25;5075420;27;45310;-63
2021/09/25 09:00:53;;;;;;;;;36.00;33.00;;;;;-146.80;100.00;64830.25;5074204;28;45315;-64
2021/09/25 09:03:34;;;;;;;;;44.75;36.25;;;;;-146.80;100.00;64830.25;5074946;28;46299;-64
2021/09/25 09:06:14;;;;;;;;;40.75;34.00;;;;;-146.80;100.00;64830.25;5075778;27;45395;-63
2021/09/25 09:08:42;;;;;;;;;39.50;34.50;;;;;-146.80;100.00;64830.25;5086554;27;45341;-65
2021/09/25 09:11:08;;;;;;;;;32.75;30.75;;;;;-146.80;100.00;64830.25;5053502;28;45430;-63
2021/09/25 09:13:36;;;;;;;;;44.00;36.50;;;;;-146.80;100.00;64830.25;5055087;28;45999;-64
2021/09/25 09:16:04;;;;;;;;;44.50;35.25;;;;;-146.80;100.00;64830.25;5055018;28;45379;-64
2021/09/25 09:18:31;;;;;;;;;38.00;33.00;;;;;-146.80;100.00;64830.25;5070474;28;45398;-63
2021/09/25 09:21:09;;;;;;;;;42.75;35.50;;;;;-146.80;100.00;64830.25;5070500;27;45257;-64
2021/09/25 09:23:41;;;;;;;;;39.00;33.75;;;;;-146.80;100.00;64830.25;5054389;28;45422;-64
2021/09/25 09:26:08;;;;;;;;;45.50;35.75;;;;;-146.80;100.00;64830.25;5054757;28;45235;-64
2021/09/25 09:28:36;;;;;;;;;27.75;25.75;;;;;-146.80;100.00;64830.25;5054982;28;45427;-65
2021/09/25 09:31:03;;;;;;;;;40.00;30.00;;;;;-146.80;100.00;64830.25;5070572;28;45600;-65
2021/09/25 09:33:40;;;;;;;;;44.50;35.75;;;;;-146.80;100.00;64830.25;5054843;28;46331;-66
2021/09/25 09:36:16;;;;;;;;;27.00;25.50;;;;;-146.80;100.00;64830.25;5069324;28;45820;-64
2021/09/25 09:38:50;;;;;;;;;29.25;26.00;;;;;-146.80;100.00;64830.25;5054387;28;45345;-65
2021/09/25 09:41:17;;;;;;;;;47.50;37.00;;;;;-146.80;100.00;64830.25;5054762;28;45375;-65
2021/09/25 09:43:43;;;;;;;;;35.50;32.00;;;;;-146.80;100.00;64830.25;5054339;28;45448;-66
2021/09/25 09:46:08;;;;;;;;;32.50;27.50;;;;;-146.80;100.00;64830.25;5054126;28;45224;-64
2021/09/25 09:48:34;;;;;;;;;32.00;29.00;;;;;-146.80;100.00;64830.25;5054775;28;45255;-63
2021/09/25 09:50:59;;;;;;;;;36.00;32.50;;;;;-146.80;100.00;64830.25;5054504;28;45372;-63
2021/09/25 09:53:29;;;;;;;;;30.50;29.75;;;;;-146.80;100.00;64830.25;5069523;28;48251;-64
2021/09/25 09:56:17;;;;;;;;;31.50;28.50;;;;;-146.80;100.00;64830.25;5054186;28;45320;-63
2021/09/25 09:58:43;;;;;;;;;28.00;26.00;;;;;-146.80;100.00;64830.25;5054113;28;45317;-64
2021/09/25 10:01:09;;;;;;;;;24.75;24.50;;;;;-146.80;100.00;64830.25;5054408;28;45516;-64
2021/09/25 10:03:35;;;;;;;;;21.75;21.75;;;;;-146.80;100.00;64830.25;5069664;28;45429;-63
2021/09/25 10:06:00;;;;;;;;;35.25;31.00;;;;;-146.80;100.00;64830.25;5053475;28;45432;-64
2021/09/25 10:08:26;;;;;;;;;35.00;30.25;;;;;-146.80;100.00;64830.25;5086733;27;45248;-65
2021/09/25 10:10:53;;;;;;;;;28.00;25.25;;;;;-146.80;100.00;64830.25;5054086;28;45660;-64
2021/09/25 10:13:18;;;;;;;;;22.25;20.50;;;;;-146.80;100.00;64830.25;5053323;28;45689;-63
2021/09/25 10:15:44;;;;;;;;;25.75;23.00;;;;;-146.80;100.00;64830.25;5057530;28;45353;-65
2021/09/25 10:18:10;;;;;;;;;27.75;24.25;;;;;-146.80;100.00;64830.25;5071596;27;45467;-65
2021/09/25 10:20:36;;;;;;;;;23.00;19.75;;;;;-146.80;100.00;64830.25;5074618;28;45544;-65
2021/09/25 10:23:02;;;;;;;;;26.50;24.25;;;;;-146.80;100.00;64830.25;5071766;28;46410;-65
2021/09/25 10:25:28;;;;;;;;;25.00;24.50;;;;;-146.80;100.00;64830.25;5089543;27;45342;-64
2021/09/25 10:27:53;;;;;;;;;24.25;20.75;;;;;-146.80;100.00;64830.25;5074316;27;45393;-65
2021/09/25 10:30:34;;;;;;;;;27.25;24.25;;;;;-146.80;100.00;64830.25;5074615;27;45427;-63
2021/09/25 10:33:13;;;;;;;;;26.50;24.25;;;;;-146.80;100.00;64830.25;5073625;27;45525;-65
2021/09/25 10:35:38;;;;;;;;;24.75;23.00;;;;;-146.80;100.00;64830.25;5076956;28;45764;-63
2021/09/25 10:38:04;;;;;;;;;27.00;26.00;;;;;-146.80;100.00;64830.25;5076169;28;45349;-65
2021/09/25 10:40:36;;;;;;;;;31.75;27.75;;;;;-146.80;100.00;64830.25;5077642;27;45516;-64
2021/09/25 10:43:14;;;;;;;;;27.75;24.75;;;;;-146.80;100.00;64830.25;5075680;28;47072;-64
2021/09/25 10:45:39;;;;;;;;;23.00;22.75;;;;;-146.80;100.00;64830.25;5077408;27;45328;-63
2021/09/25 10:48:15;;;;;;;;;31.75;27.50;;;;;-146.80;100.00;64830.25;5077913;27;45461;-64
2021/09/25 10:50:52;;;;;;;;;24.75;23.75;;;;;-146.80;100.00;64830.25;5077591;27;45510;-64